Mayfield, South Dakota
Current Conditions -  °F | °C
As of 6:15 AM on Saturday 20 Dec 2014 (Local Time) from KYKN Reporting Station
Overcast Overcast  
Wind Chill: 32°   Ceiling: 800
Heat Index: 32°   Visibility: 4mi
Dew Point: 28°   Wind: 3mph
Humidity: 87%   Direction: 120°ESE
Pressure: 30.06"   Gusts: NA
Location:  43.1155°N, 97.287°W
Report Text: KYKN 201215Z AUTO 12003KT 4SM OVC008 00/M02 A3006 RMK AO1
Loading
Personal Weather Stations






























Interactive Weather Map New forecast layout! Learn more

10-Day Weather Forecast

Advertisements
Track Severe Weather on mobile